< < Back
Terminal Aerodrome Forecast


Current Version              Previous Versions:   1  2  3  4  5  6  7  8  9  

Terminal Aerodrome Forecast

767
FTUS42 KJAX 270904 AAA
TAFGNV
TAF AMD
KGNV 270904Z 2709/2806 26005KT P6SM SCT040 BKN150 BKN250
     FM271300 27007KT P6SM VCSH BKN040 BKN120 OVC200
      TEMPO 2713/2717 5SM -SHRA SCT025 OVC035
     FM280000 24005KT P6SM VCSH BKN030 OVC150 PROB30 2800/2804 5SM
      -SHRA BR=



Latest METAR

482
SAUS70 KWBC 271000 RRD
MTRGNV
METAR KGNV 270953Z AUTO 25009KT 7SM BKN009 OVC080 23/22 A2975 RMK AO2
SLP069 T02330222 $


USA.gov is the U.S. government's official web portal to all federal, state and local government web resources and services.